Time;durP1;ratioP1;P1;durP2;ratioP2;P2;SDS_P1;SDS_P2;PMS_P1;PMS_P2;Temp;Humidity;BMP_temperature;BMP_pressure;BME280_temperature;BME280_humidity;BME280_pressure;Samples;Min_cycle;Max_cycle;Signal;HPM_P1;HPM_P2
2023/10/06 00:00:42;;;;;;;98.78;94.28;;;;;;;18.31;56.15;102405.72;4969974;28;20049;-67
2023/10/06 00:03:14;;;;;;;98.80;94.10;;;;;;;18.30;56.45;102406.81;4966753;28;20038;-67
2023/10/06 00:05:40;;;;;;;101.10;96.60;;;;;;;18.29;56.18;102410.59;4960584;28;20069;-69
2023/10/06 00:08:17;;;;;;;98.93;94.13;;;;;;;18.30;56.18;102416.94;4969903;28;20030;-67
2023/10/06 00:10:46;;;;;;;101.78;96.70;;;;;;;18.27;56.14;102420.16;4958765;28;20118;-67
2023/10/06 00:13:31;;;;;;;98.47;94.07;;;;;;;18.26;56.13;102416.59;4960860;28;20043;-67
2023/10/06 00:15:58;;;;;;;98.75;94.30;;;;;;;18.23;56.59;102414.38;4973329;28;20041;-67
2023/10/06 00:18:27;;;;;;;100.57;95.93;;;;;;;18.23;56.22;102417.09;4965686;28;20049;-68
2023/10/06 00:20:56;;;;;;;98.13;93.40;;;;;;;18.20;56.67;102412.16;4959932;28;20049;-67
2023/10/06 00:23:23;;;;;;;98.90;94.15;;;;;;;18.21;56.03;102421.19;4969945;28;20042;-68
2023/10/06 00:25:54;;;;;;;101.32;96.35;;;;;;;18.20;56.67;102414.06;4954816;28;20043;-67
2023/10/06 00:28:22;;;;;;;97.85;93.28;;;;;;;18.19;56.23;102420.59;4964373;28;20452;-70
2023/10/06 00:30:48;;;;;;;98.65;94.10;;;;;;;18.16;56.42;102420.00;4963607;28;20097;-67
2023/10/06 00:33:15;;;;;;;99.10;94.65;;;;;;;18.16;56.52;102417.28;4967232;28;20122;-68
2023/10/06 00:35:41;;;;;;;99.80;95.18;;;;;;;18.15;56.63;102415.63;4969230;28;20045;-67
2023/10/06 00:38:16;;;;;;;96.32;92.07;;;;;;;18.14;56.44;102411.25;4954307;28;20106;-69
2023/10/06 00:40:55;;;;;;;100.65;95.95;;;;;;;18.14;56.34;102413.16;4970542;28;20043;-69
2023/10/06 00:43:35;;;;;;;96.82;92.28;;;;;;;18.12;56.73;102409.88;4971686;28;20053;-69
2023/10/06 00:46:06;;;;;;;98.03;93.50;;;;;;;18.11;56.67;102410.91;4968419;28;20041;-70
2023/10/06 00:48:40;;;;;;;97.72;93.22;;;;;;;18.09;56.71;102403.00;4966028;28;20031;-70
2023/10/06 00:51:19;;;;;;;96.50;92.15;;;;;;;18.08;56.29;102406.78;4966608;28;20395;-69
2023/10/06 00:53:45;;;;;;;95.32;91.10;;;;;;;18.07;56.48;102398.84;4967110;28;20164;-66
2023/10/06 00:56:14;;;;;;;98.38;93.68;;;;;;;18.04;56.41;102391.97;4954115;28;20050;-70
2023/10/06 00:58:43;;;;;;;98.63;93.75;;;;;;;18.04;56.48;102394.72;4953462;28;20494;-69
2023/10/06 01:01:12;;;;;;;;;;;;;;;18.03;56.42;102384.84;4965543;28;20421;-69
2023/10/06 01:03:39;;;;;;;96.15;91.53;;;;;;;18.01;56.13;102391.66;4968605;28;20000;-68
2023/10/06 01:06:13;;;;;;;97.90;93.00;;;;;;;18.00;56.51;102393.56;4968490;28;20040;-67
2023/10/06 01:08:40;;;;;;;98.07;93.10;;;;;;;17.98;56.46;102387.50;4953526;28;20040;-69
2023/10/06 01:11:11;;;;;;;97.97;93.38;;;;;;;17.98;56.64;102392.16;4964291;28;20066;-67
2023/10/06 01:13:51;;;;;;;96.47;91.95;;;;;;;17.98;56.60;102386.69;4962868;28;20050;-67
2023/10/06 01:16:17;;;;;;;94.70;90.45;;;;;;;17.96;56.22;102378.72;4963866;28;20047;-68
2023/10/06 01:18:42;;;;;;;95.50;90.95;;;;;;;17.94;56.77;102370.78;4971154;28;20042;-67
2023/10/06 01:21:17;;;;;;;94.93;90.57;;;;;;;17.94;56.66;102375.41;4954399;28;20071;-67
2023/10/06 01:23:47;;;;;;;95.88;91.57;;;;;;;17.93;56.57;102373.78;4953155;28;20035;-68
2023/10/06 01:26:13;;;;;;;95.93;91.18;;;;;;;17.91;56.76;102374.00;4968494;28;20113;-68
2023/10/06 01:28:45;;;;;;;94.07;89.88;;;;;;;17.91;56.76;102375.91;4953171;28;20034;-67
2023/10/06 01:31:12;;;;;;;90.93;86.53;;;;;;;17.89;56.62;102378.06;4964165;28;20041;-69
2023/10/06 01:33:38;;;;;;;96.68;92.28;;;;;;;17.88;56.67;102365.50;4964003;28;20396;-67
2023/10/06 01:36:13;;;;;;;93.15;88.97;;;;;;;17.87;56.65;102363.84;4967360;28;20146;-68
2023/10/06 01:38:43;;;;;;;97.22;92.63;;;;;;;17.87;56.84;102361.13;4952955;28;20133;-68
2023/10/06 01:41:10;;;;;;;95.70;91.20;;;;;;;17.86;56.73;102363.00;4962175;28;20050;-68
2023/10/06 01:43:35;;;;;;;96.63;91.72;;;;;;;17.85;56.39;102357.81;4966128;28;20503;-68
2023/10/06 01:46:00;;;;;;;94.55;90.32;;;;;;;17.84;56.73;102361.59;4962477;28;20034;-68
2023/10/06 01:48:30;;;;;;;97.25;92.40;;;;;;;17.83;56.33;102357.22;4956581;28;20045;-68
2023/10/06 01:50:56;;;;;;;93.47;89.18;;;;;;;17.83;56.66;102368.16;4954139;28;20472;-68
2023/10/06 01:53:21;;;;;;;92.78;88.68;;;;;;;17.81;56.35;102362.13;4970061;28;20042;-68
2023/10/06 01:55:56;;;;;;;94.80;90.43;;;;;;;17.80;56.39;102365.94;4967316;28;20039;-68
2023/10/06 01:58:22;;;;;;;92.88;88.63;;;;;;;17.80;56.83;102360.47;4964481;28;20065;-69
2023/10/06 02:00:48;;;;;;;94.82;90.13;;;;;;;17.79;56.94;102362.34;4962309;28;20035;-69
2023/10/06 02:03:18;;;;;;;92.05;87.93;;;;;;;17.78;56.56;102359.84;4964696;28;20042;-69
2023/10/06 02:05:44;;;;;;;95.32;90.13;;;;;;;17.77;56.80;102359.03;4959947;28;20042;-68
2023/10/06 02:08:10;;;;;;;95.75;91.35;;;;;;;17.76;56.37;102351.91;4959670;28;20071;-68
2023/10/06 02:10:40;;;;;;;93.57;89.15;;;;;;;17.76;56.85;102357.38;4952532;28;20027;-68
2023/10/06 02:13:06;;;;;;;93.38;88.97;;;;;;;17.73;56.53;102357.88;4962828;28;20046;-68
2023/10/06 02:15:32;;;;;;;93.43;88.63;;;;;;;17.73;56.39;102360.59;4956595;28;20028;-68
2023/10/06 02:17:57;;;;;;;94.25;89.95;;;;;;;17.71;56.73;102358.16;4966023;28;20073;-68
2023/10/06 02:22:50;;;;;;;97.63;93.22;;;;;;;17.70;56.47;102361.13;4969784;28;20042;-68
2023/10/06 02:25:15;;;;;;;92.75;87.95;;;;;;;17.68;56.78;102355.06;4959713;28;20119;-68
2023/10/06 02:27:45;;;;;;;96.78;92.07;;;;;;;17.68;56.92;102364.09;4962986;28;20125;-68
2023/10/06 02:30:15;;;;;;;93.38;89.07;;;;;;;17.68;56.62;102349.59;4969386;28;20126;-69
2023/10/06 02:32:43;;;;;;;93.22;88.93;;;;;;;17.67;56.83;102361.63;4963126;28;20031;-68
2023/10/06 02:35:10;;;;;;;93.88;89.22;;;;;;;17.65;56.44;102353.66;4967198;28;20122;-68
2023/10/06 02:37:36;;;;;;;92.18;88.10;;;;;;;17.65;56.61;102355.56;4957460;28;20039;-69
2023/10/06 02:40:10;;;;;;;93.68;89.38;;;;;;;17.62;56.58;102354.19;4952505;28;20036;-68
2023/10/06 02:42:41;;;;;;;92.68;88.03;;;;;;;17.62;56.96;102348.72;4962184;28;20047;-69
2023/10/06 02:45:07;;;;;;;94.10;89.80;;;;;;;17.62;56.93;102365.09;4961936;28;20050;-68
2023/10/06 02:47:32;;;;;;;95.00;90.78;;;;;;;17.60;56.53;102361.78;4970256;28;20049;-68
2023/10/06 02:49:59;;;;;;;94.07;89.63;;;;;;;17.59;56.85;102348.38;4955131;28;20080;-68
2023/10/06 02:52:37;;;;;;;91.25;86.90;;;;;;;17.59;56.52;102356.56;4973491;28;20031;-67
2023/10/06 02:57:28;;;;;;;92.07;87.90;;;;;;;17.55;56.51;102345.31;4970438;28;20416;-67
2023/10/06 02:59:56;;;;;;;92.90;88.57;;;;;;;17.55;56.42;102344.50;4961391;28;20463;-68
2023/10/06 03:02:25;;;;;;;91.45;87.25;;;;;;;17.54;56.59;102343.69;4963599;28;20073;-68
2023/10/06 03:04:55;;;;;;;;;;;;;;;17.52;56.84;102346.66;4967114;28;20467;-67
2023/10/06 03:07:22;;;;;;;87.07;83.05;;;;;;;17.51;56.95;102341.41;4955984;28;19914;-67
2023/10/06 03:09:48;;;;;;;90.05;85.85;;;;;;;17.50;56.38;102347.97;4955582;28;20033;-67
2023/10/06 03:14:49;;;;;;;91.68;87.38;;;;;;;17.48;56.67;102334.56;4961570;28;20053;-68
2023/10/06 03:17:18;;;;;;;91.70;87.50;;;;;;;17.47;56.53;102329.34;4971570;28;20034;-67
2023/10/06 03:19:44;;;;;;;;;;;;;;;17.45;56.56;102326.88;4969877;28;20040;-68
2023/10/06 03:22:14;;;;;;;86.07;81.70;;;;;;;17.44;56.46;102322.50;4966698;28;19977;-67
2023/10/06 03:24:52;;;;;;;88.38;83.70;;;;;;;17.42;56.92;102330.09;4958189;28;20031;-69
2023/10/06 03:27:18;;;;;;;90.20;85.78;;;;;;;17.41;56.61;102324.88;4966510;28;20398;-68
2023/10/06 03:29:53;;;;;;;91.60;87.28;;;;;;;17.40;56.57;102334.97;4959576;28;20126;-68
2023/10/06 03:32:32;;;;;;;87.53;83.57;;;;;;;17.40;56.88;102336.91;4963804;28;20121;-68
2023/10/06 03:35:05;;;;;;;;;;;;;;;17.39;56.80;102337.97;4963806;28;20365;-68
2023/10/06 03:37:45;;;;;;;82.45;78.65;;;;;;;17.37;56.68;102334.66;4964525;28;20004;-68
2023/10/06 03:40:19;;;;;;;87.38;82.93;;;;;;;17.34;56.62;102327.81;4959819;28;20031;-68
2023/10/06 03:42:45;;;;;;;86.38;82.03;;;;;;;17.34;56.54;102330.53;4965818;28;20169;-68
2023/10/06 03:45:31;;;;;;;88.47;84.28;;;;;;;17.34;56.84;102321.50;4956257;28;20411;-68
2023/10/06 03:48:10;;;;;;;89.20;83.85;;;;;;;17.33;56.33;102317.94;4967525;28;20039;-68
2023/10/06 03:50:43;;;;;;;86.82;82.90;;;;;;;17.32;56.61;102320.94;4957524;28;20365;-68
2023/10/06 03:53:11;;;;;;;87.00;82.70;;;;;;;17.32;56.57;102331.84;4960145;28;20050;-67
2023/10/06 03:55:45;;;;;;;89.03;84.82;;;;;;;17.30;56.69;102315.72;4955092;28;20027;-68
2023/10/06 03:58:14;;;;;;;86.63;82.43;;;;;;;17.29;56.62;102320.34;4963266;28;20054;-67
2023/10/06 04:00:40;;;;;;;92.38;87.93;;;;;;;17.29;56.81;102314.88;4965902;28;20035;-67
2023/10/06 04:03:13;;;;;;;88.00;83.75;;;;;;;17.29;56.99;102314.06;4962959;28;20201;-68
2023/10/06 04:05:39;;;;;;;86.93;82.95;;;;;;;17.28;56.88;102301.47;4969981;28;20487;-68
2023/10/06 04:08:11;;;;;;;90.78;86.18;;;;;;;17.26;56.81;102298.16;4959745;28;20059;-68
2023/10/06 04:10:36;;;;;;;93.40;89.10;;;;;;;17.25;56.50;102294.59;4970390;28;20035;-68
2023/10/06 04:13:08;;;;;;;87.88;83.88;;;;;;;17.24;56.75;102292.13;4965236;28;20188;-68
2023/10/06 04:15:43;;;;;;;87.80;83.63;;;;;;;17.23;56.89;102294.03;4974267;28;20121;-68
2023/10/06 04:18:10;;;;;;;87.20;83.20;;;;;;;17.22;56.92;102299.75;4967214;28;20042;-68
2023/10/06 04:20:42;;;;;;;86.50;82.57;;;;;;;17.21;56.98;102304.38;4960942;28;20039;-68
2023/10/06 04:23:09;;;;;;;88.72;84.63;;;;;;;17.21;56.63;102314.47;4963779;28;20073;-68
2023/10/06 04:25:37;;;;;;;89.55;85.45;;;;;;;17.21;56.42;102315.31;4954693;28;20048;-68
2023/10/06 04:28:08;;;;;;;90.65;86.20;;;;;;;17.20;56.96;102323.75;4965695;28;20539;-68
2023/10/06 04:30:35;;;;;;;88.82;84.70;;;;;;;17.19;56.51;102325.66;4956530;28;20451;-68
2023/10/06 04:33:03;;;;;;;87.88;83.80;;;;;;;17.17;56.46;102310.59;4963764;28;20419;-68
2023/10/06 04:35:32;;;;;;;88.22;84.32;;;;;;;17.17;56.88;102299.66;4966589;28;20141;-68
2023/10/06 04:38:01;;;;;;;87.82;83.72;;;;;;;17.15;56.83;102305.38;4969908;28;20356;-68
2023/10/06 04:40:29;;;;;;;82.35;78.45;;;;;;;17.14;56.49;102303.72;4958180;28;20039;-68
2023/10/06 04:42:56;;;;;;;;;;;;;;;17.12;56.74;102305.88;4966410;28;20126;-68
2023/10/06 04:45:23;;;;;;;83.03;79.22;;;;;;;17.10;56.77;102302.56;4960891;28;19972;-68
2023/10/06 04:47:48;;;;;;;83.50;79.50;;;;;;;17.08;56.59;102302.81;4954874;28;20538;-69
2023/10/06 04:50:16;;;;;;;87.40;83.18;;;;;;;17.07;56.60;102297.59;4971911;28;20039;-69
2023/10/06 04:52:46;;;;;;;87.95;83.93;;;;;;;17.07;56.75;102294.88;4960576;28;20051;-69
2023/10/06 04:55:13;;;;;;;88.03;83.72;;;;;;;17.05;56.35;102297.00;4954086;28;20042;-67
2023/10/06 04:57:40;;;;;;;88.78;84.50;;;;;;;17.04;56.68;102296.19;4961277;28;20042;-71
2023/10/06 05:00:13;;;;;;;88.47;84.28;;;;;;;17.03;56.47;102289.09;4963857;28;20117;-67
2023/10/06 05:02:44;;;;;;;86.85;82.93;;;;;;;17.02;56.84;102281.97;4965547;28;20041;-68
2023/10/06 05:05:22;;;;;;;84.10;80.30;;;;;;;17.01;56.32;102284.94;4957736;28;20077;-68
2023/10/06 05:07:48;;;;;;;84.50;80.72;;;;;;;17.00;56.75;102295.03;4959521;28;20039;-68
2023/10/06 05:10:21;;;;;;;86.43;82.53;;;;;;;17.00;56.64;102291.47;4971041;28;20046;-68
2023/10/06 05:12:49;;;;;;;89.30;85.22;;;;;;;16.98;56.85;102294.44;4962522;28;20055;-68
2023/10/06 05:15:23;;;;;;;84.60;80.70;;;;;;;16.97;56.45;102294.72;4956387;28;20067;-69
2023/10/06 05:17:55;;;;;;;83.70;79.88;;;;;;;16.96;56.36;102299.34;4960076;28;20039;-68
2023/10/06 05:20:23;;;;;;;85.90;81.85;;;;;;;16.96;56.58;102303.94;4953802;28;20066;-68
2023/10/06 05:22:50;;;;;;;85.50;81.35;;;;;;;16.95;56.86;102299.59;4965199;28;20062;-67
2023/10/06 05:25:19;;;;;;;86.60;82.72;;;;;;;16.94;56.60;102300.66;4956624;28;20039;-68
2023/10/06 05:27:46;;;;;;;84.60;80.70;;;;;;;16.94;56.49;102295.22;4965699;28;20043;-68
2023/10/06 05:30:13;;;;;;;83.18;78.93;;;;;;;16.93;56.74;102288.06;4964398;28;20071;-68
2023/10/06 05:32:42;;;;;;;84.03;80.13;;;;;;;16.92;56.52;102291.88;4962131;28;20110;-68
2023/10/06 05:35:08;;;;;;;88.25;83.93;;;;;;;16.91;56.77;102287.50;4961601;28;20042;-69
2023/10/06 05:37:33;;;;;;;81.68;77.57;;;;;;;16.90;56.83;102291.31;4956037;28;20043;-68
2023/10/06 05:39:59;;;;;;;85.65;80.95;;;;;;;16.88;56.76;102286.09;4955340;28;20045;-68
2023/10/06 05:42:24;;;;;;;84.28;80.47;;;;;;;16.86;56.42;102286.34;4953072;28;20452;-68
2023/10/06 05:44:49;;;;;;;84.05;80.00;;;;;;;16.86;56.50;102288.25;4962032;28;20039;-69
2023/10/06 05:47:15;;;;;;;87.22;83.13;;;;;;;16.85;56.71;102284.69;4961433;28;20118;-68
2023/10/06 05:49:47;;;;;;;86.35;82.25;;;;;;;16.86;56.73;102285.53;4963977;28;20081;-68
2023/10/06 05:52:13;;;;;;;85.35;81.30;;;;;;;16.85;56.44;102290.13;4958239;28;20035;-68
2023/10/06 05:54:38;;;;;;;86.28;82.35;;;;;;;16.84;56.49;102291.22;4965536;28;20066;-67
2023/10/06 05:57:04;;;;;;;87.65;83.43;;;;;;;16.83;56.42;102289.56;4961584;28;20038;-67
2023/10/06 05:59:33;;;;;;;85.88;81.82;;;;;;;16.82;56.45;102276.16;4969347;28;20039;-67
2023/10/06 06:02:00;;;;;;;85.78;81.90;;;;;;;16.81;56.33;102275.34;4959698;28;20039;-68
2023/10/06 06:04:29;;;;;;;82.95;78.78;;;;;;;16.80;56.39;102286.50;4958346;28;20479;-68
2023/10/06 06:07:02;;;;;;;83.88;80.07;;;;;;;16.79;56.55;102280.22;4952864;28;20486;-68
2023/10/06 06:09:28;;;;;;;81.63;77.88;;;;;;;16.78;56.54;102288.66;4953289;28;20117;-68
2023/10/06 06:11:53;;;;;;;84.47;80.63;;;;;;;16.77;56.86;102287.78;4955685;28;20125;-68
2023/10/06 06:14:21;;;;;;;81.70;77.60;;;;;;;16.76;56.83;102288.88;4957443;28;20090;-69
2023/10/06 06:16:47;;;;;;;83.43;79.63;;;;;;;16.74;56.50;102299.19;4967696;28;20041;-67
2023/10/06 06:19:13;;;;;;;84.53;80.43;;;;;;;16.73;56.51;102293.97;4968093;28;20122;-69
2023/10/06 06:21:39;;;;;;;85.38;81.15;;;;;;;16.72;56.84;102300.53;4964792;28;20059;-67
2023/10/06 06:24:08;;;;;;;80.72;77.00;;;;;;;16.70;56.85;102295.31;4957714;28;20121;-67
2023/10/06 06:26:37;;;;;;;84.38;80.40;;;;;;;16.70;56.39;102295.31;4966614;28;20032;-69
2023/10/06 06:29:04;;;;;;;82.75;78.88;;;;;;;16.70;56.38;102299.94;4970460;28;20031;-68
2023/10/06 06:31:32;;;;;;;86.93;82.75;;;;;;;16.69;56.56;102307.31;4965093;28;20043;-68
2023/10/06 06:34:04;;;;;;;82.88;78.55;;;;;;;16.67;56.57;102298.53;4972794;28;20472;-68
2023/10/06 06:36:31;;;;;;;83.25;79.15;;;;;;;16.66;56.49;102297.72;4973694;28;21587;-68
2023/10/06 06:38:58;;;;;;;84.63;80.03;;;;;;;16.65;56.75;102292.47;4971617;28;20103;-69
2023/10/06 06:41:24;;;;;;;84.97;80.88;;;;;;;16.64;56.83;102297.13;4969617;28;20043;-69
2023/10/06 06:43:54;;;;;;;83.18;79.43;;;;;;;16.65;56.64;102301.50;4967120;28;20038;-70
2023/10/06 06:46:20;;;;;;;85.40;81.32;;;;;;;16.64;56.95;102288.09;4969888;28;20049;-69
2023/10/06 06:48:46;;;;;;;80.53;76.88;;;;;;;16.64;56.51;102299.03;4968630;28;20503;-69
2023/10/06 06:51:12;;;;;;;84.97;80.97;;;;;;;16.63;56.81;102289.16;4968671;28;20030;-68
2023/10/06 06:53:39;;;;;;;81.85;78.10;;;;;;;16.62;56.54;102301.97;4965938;28;20954;-68
2023/10/06 06:56:05;;;;;;;86.13;82.05;;;;;;;16.61;56.32;102297.63;4966247;28;20043;-68
2023/10/06 06:58:32;;;;;;;84.22;80.32;;;;;;;16.62;56.32;102299.25;4971013;28;20038;-68
2023/10/06 07:00:58;;;;;;;83.07;78.93;;;;;;;16.61;56.83;102300.34;4976822;28;20058;-68
2023/10/06 07:03:24;;;;;;;86.15;80.60;;;;;;;16.61;56.31;102296.78;4976210;28;20085;-67
2023/10/06 07:05:50;;;;;;;84.13;80.18;;;;;;;16.59;56.85;102293.47;4975371;28;20058;-67
2023/10/06 07:08:16;;;;;;;86.25;81.88;;;;;;;16.58;56.67;102289.06;4970365;28;20524;-67
2023/10/06 07:10:46;;;;;;;82.50;78.75;;;;;;;16.58;56.97;102303.56;4974883;28;20035;-67
2023/10/06 07:13:11;;;;;;;86.70;82.15;;;;;;;16.59;56.60;102301.66;4966738;28;20050;-67
2023/10/06 07:15:37;;;;;;;84.25;79.93;;;;;;;16.58;56.85;102302.72;4976292;28;20034;-68
2023/10/06 07:18:03;;;;;;;84.03;79.95;;;;;;;16.56;56.95;102308.44;4974983;28;20058;-68
2023/10/06 07:20:30;;;;;;;82.32;78.65;;;;;;;16.56;56.69;102311.16;4970174;28;20062;-67
2023/10/06 07:23:02;;;;;;;86.03;81.47;;;;;;;16.55;56.75;102308.66;4967587;28;20039;-68
2023/10/06 07:25:28;;;;;;;84.30;80.22;;;;;;;16.55;56.80;102298.56;4970410;28;20050;-68
2023/10/06 07:27:57;;;;;;;82.07;78.15;;;;;;;16.55;56.71;102304.03;4973373;28;20042;-69
2023/10/06 07:30:23;;;;;;;84.88;80.60;;;;;;;16.56;56.58;102304.88;4967793;28;20035;-68
2023/10/06 07:32:54;;;;;;;83.03;79.05;;;;;;;16.56;56.66;102305.72;4972828;28;20479;-67
2023/10/06 07:35:30;;;;;;;80.80;76.90;;;;;;;16.56;56.80;102310.34;4969559;28;20023;-67
2023/10/06 07:37:57;;;;;;;81.50;77.57;;;;;;;16.56;56.82;102313.06;4966463;28;20035;-68
2023/10/06 07:40:22;;;;;;;82.75;78.78;;;;;;;16.55;56.72;102311.41;4969800;28;20113;-68
2023/10/06 07:42:50;;;;;;;82.95;78.95;;;;;;;16.53;56.59;102317.13;4969161;28;20448;-68
2023/10/06 07:45:16;;;;;;;81.95;77.95;;;;;;;16.53;56.67;102321.72;4966971;28;20065;-68
2023/10/06 07:47:42;;;;;;;80.20;76.55;;;;;;;16.51;56.89;102334.78;4979112;28;20085;-67
2023/10/06 07:50:09;;;;;;;83.28;79.00;;;;;;;16.52;56.80;102341.91;4966404;28;20514;-69
2023/10/06 07:52:36;;;;;;;81.68;77.88;;;;;;;16.50;56.54;102336.66;4969976;28;20035;-67
2023/10/06 07:55:06;;;;;;;84.05;79.45;;;;;;;16.50;56.86;102336.66;4968389;28;20038;-69
2023/10/06 07:57:33;;;;;;;83.40;79.18;;;;;;;16.49;56.83;102328.75;4969902;28;20046;-68
2023/10/06 08:00:07;;;;;;;80.63;76.82;;;;;;;16.49;56.76;102332.31;4962342;28;20043;-68
2023/10/06 08:02:33;;;;;;;85.95;81.63;;;;;;;16.47;57.08;102328.16;4966163;28;20498;-68
2023/10/06 08:04:59;;;;;;;82.20;78.38;;;;;;;16.46;56.68;102330.06;4967633;28;20126;-67
2023/10/06 08:07:28;;;;;;;82.47;78.72;;;;;;;16.47;56.81;102325.44;4968247;28;20110;-66
2023/10/06 08:09:58;;;;;;;84.45;80.40;;;;;;;16.47;57.07;102331.72;4964464;28;20035;-67
2023/10/06 08:12:24;;;;;;;85.05;80.85;;;;;;;16.47;56.87;102331.72;4967656;28;20031;-67
2023/10/06 08:14:50;;;;;;;84.43;80.18;;;;;;;16.48;56.77;102329.81;4972829;28;20070;-68
2023/10/06 08:17:15;;;;;;;82.82;78.88;;;;;;;16.49;56.92;102328.75;4962192;28;20047;-68
2023/10/06 08:19:41;;;;;;;82.75;78.68;;;;;;;16.49;56.90;102340.47;4965814;28;20035;-68
2023/10/06 08:22:06;;;;;;;80.43;76.63;;;;;;;16.49;56.86;102334.22;4968038;28;20031;-68
2023/10/06 08:24:31;;;;;;;79.68;75.57;;;;;;;16.49;56.90;102332.31;4968104;28;20517;-67
2023/10/06 08:26:57;;;;;;;81.05;77.15;;;;;;;16.50;57.00;102341.31;4970982;28;20559;-67
2023/10/06 08:29:23;;;;;;;80.07;76.28;;;;;;;16.50;57.02;102328.50;4954210;28;20074;-68
2023/10/06 08:31:49;;;;;;;81.47;77.32;;;;;;;16.51;57.00;102334.78;4959966;28;20106;-69
2023/10/06 08:34:14;;;;;;;82.30;77.85;;;;;;;16.51;57.42;102332.88;4970312;28;20546;-68
2023/10/06 08:36:41;;;;;;;82.32;78.28;;;;;;;16.53;57.52;102336.22;4971035;28;20126;-68
2023/10/06 08:39:08;;;;;;;80.95;77.03;;;;;;;16.55;57.25;102339.50;4958198;28;20495;-68
2023/10/06 08:41:37;;;;;;;80.07;76.35;;;;;;;16.56;56.94;102332.97;4959664;28;20039;-68
2023/10/06 08:44:03;;;;;;;77.63;74.00;;;;;;;16.58;57.15;102335.44;4971265;28;20479;-69
2023/10/06 08:46:33;;;;;;;82.82;78.13;;;;;;;16.61;57.36;102327.63;4964941;28;20039;-73
2023/10/06 08:48:59;;;;;;;79.28;75.38;;;;;;;16.67;57.34;102323.09;4970950;28;20037;-72
2023/10/06 08:51:30;;;;;;;83.90;79.43;;;;;;;16.71;57.66;102332.44;4970830;28;20133;-68
2023/10/06 08:53:57;;;;;;;82.35;78.13;;;;;;;16.77;57.77;102323.25;4969231;28;20078;-76
2023/10/06 08:56:23;;;;;;;82.75;78.30;;;;;;;16.83;58.04;102329.66;4959749;28;20031;-68
2023/10/06 08:58:49;;;;;;;83.93;79.85;;;;;;;16.87;58.07;102341.75;4968287;28;20137;-72
2023/10/06 09:01:18;;;;;;;81.97;77.88;;;;;;;16.92;58.38;102343.75;4958936;28;20153;-70
2023/10/06 09:03:53;;;;;;;80.30;76.07;;;;;;;16.96;58.05;102344.91;5065952;28;20842;-75
2023/10/06 09:06:19;;;;;;;83.78;79.40;;;;;;;17.00;58.07;102343.34;5044801;28;20041;-73
2023/10/06 09:08:44;;;;;;;81.68;77.43;;;;;;;17.03;58.69;102343.69;5038463;28;20037;-67
2023/10/06 09:11:10;;;;;;;82.78;78.78;;;;;;;17.08;58.34;102337.47;5049780;28;20044;-67
2023/10/06 09:13:36;;;;;;;84.40;80.05;;;;;;;17.12;58.69;102335.91;5043347;28;20099;-67
2023/10/06 09:16:09;;;;;;;83.95;79.82;;;;;;;17.15;58.98;102323.66;5034048;28;20041;-68
2023/10/06 09:18:38;;;;;;;87.38;82.68;;;;;;;17.16;59.03;102328.88;5029751;28;20479;-67
2023/10/06 09:21:19;;;;;;;83.82;79.75;;;;;;;17.20;59.08;102338.22;5044496;28;20080;-68
2023/10/06 09:23:45;;;;;;;83.63;79.60;;;;;;;17.22;59.20;102335.25;5030999;28;20080;-71
2023/10/06 09:26:12;;;;;;;84.30;80.00;;;;;;;17.25;59.27;102329.28;5045382;28;20398;-70
2023/10/06 09:28:54;;;;;;;86.78;82.05;;;;;;;17.30;59.79;102335.66;5047655;28;20048;-69
2023/10/06 09:31:44;;;;;;;87.60;82.88;;;;;;;17.34;59.79;102332.41;5047561;28;20469;-70
2023/10/06 09:34:11;;;;;;;84.32;80.13;;;;;;;17.37;59.46;102338.22;5037808;28;20169;-67
2023/10/06 09:36:38;;;;;;;86.45;81.97;;;;;;;17.41;59.12;102333.06;5043900;28;20041;-67
2023/10/06 09:39:06;;;;;;;86.82;82.20;;;;;;;17.43;59.35;102320.00;5028134;28;20477;-69
2023/10/06 09:41:33;;;;;;;87.88;83.07;;;;;;;17.46;59.58;102316.75;5044332;28;20061;-67
2023/10/06 09:44:05;;;;;;;88.38;82.85;;;;;;;17.49;59.58;102313.56;5046405;28;20495;-66
2023/10/06 09:46:36;;;;;;;90.18;85.15;;;;;;;17.53;59.58;102304.56;5045132;28;20055;-75
2023/10/06 09:49:05;;;;;;;88.97;84.35;;;;;;;17.57;59.45;102309.56;5041929;28;20040;-70
2023/10/06 09:51:33;;;;;;;84.75;80.75;;;;;;;17.60;59.68;102314.50;5043382;28;20472;-67
2023/10/06 09:53:58;;;;;;;82.90;79.07;;;;;;;17.64;59.45;102316.50;5038038;28;20040;-72
2023/10/06 09:56:24;;;;;;;87.50;82.93;;;;;;;17.66;59.74;102322.50;5032383;28;20041;-67
2023/10/06 09:58:51;;;;;;;89.32;84.95;;;;;;;17.69;59.74;102316.56;5046407;28;20420;-66
2023/10/06 10:01:17;;;;;;;93.72;88.40;;;;;;;17.72;59.24;102321.53;5050346;28;20025;-67
2023/10/06 10:03:43;;;;;;;91.03;86.60;;;;;;;17.76;59.50;102321.00;5039110;28;20068;-67
2023/10/06 10:06:10;;;;;;;92.10;86.90;;;;;;;17.78;59.42;102321.59;5043280;28;20033;-68
2023/10/06 10:08:36;;;;;;;90.03;85.63;;;;;;;17.81;59.44;102321.13;5038056;28;20040;-67
2023/10/06 10:11:13;;;;;;;89.50;85.38;;;;;;;17.84;59.28;102326.06;5035661;28;20052;-66
2023/10/06 10:14:00;;;;;;;90.80;86.47;;;;;;;17.87;59.37;102310.00;5036624;28;20029;-68
2023/10/06 10:16:46;;;;;;;90.20;85.72;;;;;;;17.91;59.76;102321.25;5027107;28;20152;-68
2023/10/06 10:19:17;;;;;;;92.40;87.90;;;;;;;17.93;59.71;102310.88;5023309;28;20045;-67
2023/10/06 10:21:42;;;;;;;92.30;87.80;;;;;;;17.97;59.85;102309.31;5029230;28;20060;-67
2023/10/06 10:24:13;;;;;;;91.95;87.32;;;;;;;17.98;59.67;102305.47;5016846;28;20065;-67
2023/10/06 10:26:39;;;;;;;93.47;88.85;;;;;;;18.00;59.87;102310.72;5022659;28;20127;-66
2023/10/06 10:29:17;;;;;;;91.85;87.35;;;;;;;18.02;59.63;102301.16;5023837;28;20136;-68
2023/10/06 10:31:44;;;;;;;94.53;89.95;;;;;;;18.05;59.88;102308.84;5023113;28;20029;-68
2023/10/06 10:34:20;;;;;;;95.97;91.25;;;;;;;18.09;59.87;102301.81;5028865;28;20457;-68
2023/10/06 10:37:12;;;;;;;95.05;90.35;;;;;;;18.12;59.56;102305.94;5016566;28;20060;-67
2023/10/06 10:39:52;;;;;;;94.07;89.15;;;;;;;18.15;59.49;102302.69;5046622;28;20392;-66
2023/10/06 10:42:21;;;;;;;94.38;89.45;;;;;;;18.17;59.58;102304.09;5027502;28;20037;-65
2023/10/06 10:44:48;;;;;;;93.93;89.10;;;;;;;18.21;59.43;102309.84;5025347;28;20030;-66
2023/10/06 10:47:15;;;;;;;94.00;89.40;;;;;;;18.24;59.45;102305.78;5021694;28;20091;-66
2023/10/06 10:49:41;;;;;;;96.97;91.88;;;;;;;18.28;59.48;102304.19;5041679;28;20439;-66
2023/10/06 10:52:07;;;;;;;95.45;90.65;;;;;;;18.31;59.35;102309.97;5022136;28;20068;-66
2023/10/06 10:54:33;;;;;;;96.57;91.88;;;;;;;18.35;59.39;102310.31;5035139;28;20037;-66
2023/10/06 10:57:32;;;;;;;95.90;91.25;;;;;;;18.35;59.80;102316.59;5021647;28;20088;-66
2023/10/06 11:00:11;;;;;;;97.45;92.22;;;;;;;18.37;59.27;102311.69;5028192;28;20049;-66
2023/10/06 11:02:40;;;;;;;;;;;;;;;18.40;59.51;102313.09;5036162;28;20045;-68
2023/10/06 11:05:06;;;;;;;;;;;;;;;18.41;59.50;102308.44;5024414;28;19925;-67
2023/10/06 11:07:31;;;;;;;88.88;84.38;;;;;;;18.41;58.96;102312.00;5018046;28;19924;-67
2023/10/06 11:09:57;;;;;;;91.70;87.18;;;;;;;18.44;59.05;102310.66;5037184;28;20183;-66
2023/10/06 11:12:25;;;;;;;95.50;90.60;;;;;;;18.46;58.92;102305.75;5031615;28;20041;-66
2023/10/06 11:14:52;;;;;;;97.95;93.40;;;;;;;18.49;59.31;102297.84;5028787;28;20041;-66
2023/10/06 11:17:26;;;;;;;97.80;93.10;;;;;;;18.54;59.23;102294.34;5017708;28;20114;-67
2023/10/06 11:23:08;;;;;;;98.82;93.72;;;;;;;18.59;58.89;102289.75;5007757;28;20041;-66
2023/10/06 11:25:38;;;;;;;97.10;92.38;;;;;;;18.62;59.15;102293.88;5008505;28;20120;-66
2023/10/06 11:28:12;;;;;;;98.85;93.75;;;;;;;18.66;58.98;102275.84;5009296;28;20576;-66
2023/10/06 11:30:39;;;;;;;98.25;93.55;;;;;;;18.70;59.01;102278.91;5018991;28;20041;-66